createdAt,value
2023-10-27T00:00:48.605Z,5.43
2023-10-27T00:03:16.290Z,5.17
2023-10-27T00:05:43.725Z,5.07
2023-10-27T00:08:11.518Z,5.40
2023-10-27T00:10:39.079Z,4.90
2023-10-27T00:13:06.659Z,4.90
2023-10-27T00:15:34.230Z,4.83
2023-10-27T00:18:01.976Z,4.60
2023-10-27T00:20:29.508Z,5.07
2023-10-27T00:22:57.153Z,5.60
2023-10-27T00:25:25.971Z,4.83
2023-10-27T00:27:53.660Z,4.47
2023-10-27T00:30:21.635Z,4.87
2023-10-27T00:32:49.528Z,4.07
2023-10-27T00:35:17.347Z,4.67
2023-10-27T00:37:44.812Z,5.00
2023-10-27T00:40:13.371Z,4.73
2023-10-27T00:42:42.759Z,4.70
2023-10-27T00:45:10.356Z,4.60
2023-10-27T00:47:38.314Z,5.20
2023-10-27T00:50:06.486Z,4.60
2023-10-27T00:52:34.080Z,5.03
2023-10-27T00:55:01.904Z,4.43
2023-10-27T00:57:30.190Z,4.87
2023-10-27T00:59:57.952Z,4.47
2023-10-27T01:02:25.530Z,4.80
2023-10-27T01:04:53.407Z,4.60
2023-10-27T01:07:23.382Z,4.87
2023-10-27T01:09:51.851Z,5.30
2023-10-27T01:12:19.386Z,5.47
2023-10-27T01:14:46.818Z,4.60
2023-10-27T01:17:14.308Z,4.83
2023-10-27T01:19:41.998Z,4.90
2023-10-27T01:22:09.709Z,4.67
2023-10-27T01:24:37.997Z,4.37
2023-10-27T01:27:05.552Z,4.83
2023-10-27T01:29:33.099Z,4.40
2023-10-27T01:32:00.638Z,4.40
2023-10-27T01:34:28.223Z,4.20
2023-10-27T01:36:55.842Z,4.10
2023-10-27T01:39:23.399Z,4.37
2023-10-27T01:41:50.961Z,4.90
2023-10-27T01:44:18.585Z,4.93
2023-10-27T01:46:46.315Z,4.77
2023-10-27T01:49:14.034Z,4.50
2023-10-27T01:51:41.571Z,4.27
2023-10-27T01:54:09.085Z,3.60
2023-10-27T01:56:36.678Z,4.03
2023-10-27T01:59:04.167Z,3.77
2023-10-27T02:01:31.732Z,4.00
2023-10-27T02:03:59.220Z,3.90
2023-10-27T02:06:27.329Z,3.70
2023-10-27T02:08:55.144Z,4.37
2023-10-27T02:11:22.887Z,4.00
2023-10-27T02:13:50.737Z,4.40
2023-10-27T02:16:18.325Z,4.63
2023-10-27T02:18:45.822Z,4.57
2023-10-27T02:21:13.332Z,4.80
2023-10-27T02:23:40.867Z,5.60
2023-10-27T02:26:08.362Z,5.80
2023-10-27T02:28:35.954Z,5.60
2023-10-27T02:31:03.657Z,6.30
2023-10-27T02:33:31.239Z,6.40
2023-10-27T02:35:58.807Z,4.43
2023-10-27T02:38:26.299Z,4.33
2023-10-27T02:40:54.038Z,4.17
2023-10-27T02:43:21.558Z,4.47
2023-10-27T02:45:50.788Z,4.57
2023-10-27T02:48:18.317Z,4.07
2023-10-27T02:50:45.877Z,5.80
2023-10-27T02:53:13.269Z,5.20
2023-10-27T02:55:40.935Z,6.87
2023-10-27T02:58:08.423Z,6.60
2023-10-27T03:00:36.181Z,6.43
2023-10-27T03:03:03.709Z,5.23
2023-10-27T03:05:33.448Z,5.50
2023-10-27T03:08:11.480Z,5.40
2023-10-27T03:10:39.077Z,5.80
2023-10-27T03:13:09.557Z,6.47
2023-10-27T03:15:37.373Z,6.40
2023-10-27T03:18:05.036Z,7.20
2023-10-27T03:20:32.593Z,6.70
2023-10-27T03:23:00.288Z,8.50
2023-10-27T03:25:27.846Z,6.30
2023-10-27T03:27:55.990Z,5.37
2023-10-27T03:30:51.482Z,5.90
2023-10-27T03:33:19.120Z,5.47
2023-10-27T03:35:47.664Z,5.70
2023-10-27T03:38:15.768Z,5.40
2023-10-27T03:40:44.530Z,5.13
2023-10-27T03:43:12.326Z,5.67
2023-10-27T03:45:39.830Z,5.93
2023-10-27T03:48:07.457Z,5.57
2023-10-27T03:51:21.862Z,6.07
2023-10-27T03:57:33.566Z,5.50
2023-10-27T04:00:18.965Z,6.10
2023-10-27T04:02:49.343Z,5.93
2023-10-27T04:05:16.789Z,5.90
2023-10-27T04:07:44.307Z,5.60
2023-10-27T04:10:11.801Z,6.00
2023-10-27T04:12:39.366Z,5.83
2023-10-27T04:15:07.084Z,5.93
2023-10-27T04:17:34.490Z,5.87
2023-10-27T04:20:02.015Z,6.37
2023-10-27T04:22:29.594Z,6.33
2023-10-27T04:24:57.334Z,6.53
2023-10-27T04:27:25.103Z,5.90
2023-10-27T04:29:52.815Z,6.17
2023-10-27T04:32:22.067Z,6.50
2023-10-27T04:34:49.720Z,6.03
2023-10-27T04:37:17.440Z,6.00
2023-10-27T04:39:45.218Z,11.77
2023-10-27T04:42:13.250Z,6.33
2023-10-27T04:44:41.446Z,6.47
2023-10-27T04:47:09.275Z,5.53
2023-10-27T04:49:36.945Z,6.17
2023-10-27T04:52:04.918Z,6.40
2023-10-27T04:54:32.680Z,6.27
2023-10-27T04:57:00.977Z,7.07
2023-10-27T04:59:28.483Z,6.37
2023-10-27T05:01:56.296Z,8.50
2023-10-27T05:04:24.203Z,7.47
2023-10-27T05:06:52.499Z,7.00
2023-10-27T05:09:20.509Z,6.57
2023-10-27T05:11:48.436Z,6.83
2023-10-27T05:14:16.320Z,8.93
2023-10-27T05:16:43.981Z,8.43
2023-10-27T05:19:13.599Z,8.03
2023-10-27T05:21:41.479Z,6.77
2023-10-27T05:24:10.789Z,6.50
2023-10-27T05:26:38.657Z,7.20
2023-10-27T05:29:07.309Z,6.10
2023-10-27T05:31:36.305Z,6.77
2023-10-27T05:34:04.440Z,6.43
2023-10-27T05:36:32.580Z,6.87
2023-10-27T05:39:00.546Z,6.70
2023-10-27T05:41:28.496Z,6.73
2023-10-27T05:43:57.202Z,8.83
2023-10-27T05:46:25.644Z,7.50
2023-10-27T05:48:53.645Z,7.80
2023-10-27T05:51:21.548Z,6.77
2023-10-27T05:53:49.729Z,7.23
2023-10-27T05:56:18.314Z,7.80
2023-10-27T05:58:47.927Z,8.10
2023-10-27T06:01:16.247Z,7.40
2023-10-27T06:03:45.698Z,7.73
2023-10-27T06:06:13.432Z,7.20
2023-10-27T06:08:45.696Z,6.93
2023-10-27T06:11:14.183Z,8.20
2023-10-27T06:13:42.908Z,7.53
2023-10-27T06:16:11.953Z,8.10
2023-10-27T06:18:42.109Z,7.50
2023-10-27T06:21:10.811Z,7.90
2023-10-27T06:23:40.139Z,6.60
2023-10-27T06:26:08.329Z,6.73
2023-10-27T06:28:36.694Z,7.00
2023-10-27T06:31:05.546Z,7.10
2023-10-27T06:33:34.020Z,6.50
2023-10-27T06:36:02.014Z,5.73
2023-10-27T06:38:30.970Z,5.70
2023-10-27T06:40:58.703Z,6.07
2023-10-27T06:43:27.561Z,7.40
2023-10-27T06:45:56.445Z,6.67
2023-10-27T06:48:24.964Z,6.87
2023-10-27T06:50:53.871Z,6.57
2023-10-27T06:53:24.047Z,6.23
2023-10-27T06:55:59.827Z,6.07
2023-10-27T06:58:28.317Z,6.17
2023-10-27T07:00:55.801Z,5.60
2023-10-27T07:03:31.317Z,5.97
2023-10-27T07:06:00.727Z,6.03
2023-10-27T07:08:28.127Z,5.87
2023-10-27T07:10:59.247Z,6.00
2023-10-27T07:13:29.308Z,6.63
2023-10-27T07:18:39.259Z,7.03
2023-10-27T07:21:11.884Z,6.47
2023-10-27T07:23:39.516Z,7.10
2023-10-27T07:26:18.946Z,6.17
2023-10-27T07:28:46.944Z,6.43
2023-10-27T07:31:14.791Z,6.23
2023-10-27T07:33:45.157Z,6.00
2023-10-27T07:36:13.401Z,6.07
2023-10-27T07:38:43.128Z,5.60
2023-10-27T07:41:11.680Z,5.70
2023-10-27T07:43:46.506Z,6.80
2023-10-27T07:46:14.261Z,8.20
2023-10-27T07:48:46.792Z,7.17
2023-10-27T07:51:15.377Z,6.23
2023-10-27T07:53:44.772Z,5.90
2023-10-27T07:56:13.124Z,6.57
2023-10-27T07:58:42.237Z,5.57
2023-10-27T08:01:10.591Z,5.17
2023-10-27T08:03:39.800Z,3.03
2023-10-27T08:06:12.386Z,3.10
2023-10-27T08:08:40.736Z,2.63
2023-10-27T08:11:08.960Z,2.27
2023-10-27T08:13:36.473Z,2.90
2023-10-27T08:16:04.280Z,2.40
2023-10-27T08:18:31.784Z,2.60
2023-10-27T08:20:59.504Z,2.70
2023-10-27T08:23:27.701Z,2.00
2023-10-27T08:25:56.358Z,1.73
2023-10-27T08:31:09.573Z,1.73
2023-10-27T08:33:39.728Z,1.37
2023-10-27T08:36:08.225Z,1.40
2023-10-27T08:38:36.571Z,1.10
2023-10-27T08:41:06.854Z,1.10
2023-10-27T08:43:36.929Z,1.13
2023-10-27T08:46:06.948Z,1.37
2023-10-27T08:48:38.555Z,1.07
2023-10-27T08:51:22.491Z,1.10
2023-10-27T08:53:49.889Z,1.00
2023-10-27T08:56:17.381Z,0.93
2023-10-27T08:58:54.446Z,1.03
2023-10-27T09:01:22.030Z,0.70
2023-10-27T09:04:15.880Z,1.10
2023-10-27T09:06:43.888Z,1.47
2023-10-27T09:09:11.338Z,1.80
2023-10-27T09:11:43.708Z,2.90
2023-10-27T09:14:26.503Z,2.60
2023-10-27T09:17:06.736Z,2.70
2023-10-27T09:19:34.845Z,1.07
2023-10-27T09:22:06.542Z,1.10
2023-10-27T09:24:34.099Z,1.00
2023-10-27T09:27:01.740Z,1.10
2023-10-27T09:29:32.504Z,0.60
2023-10-27T09:32:00.049Z,0.60
2023-10-27T09:34:29.605Z,0.67
2023-10-27T09:37:00.143Z,0.73
2023-10-27T09:39:28.030Z,0.60
2023-10-27T09:42:07.711Z,1.00
2023-10-27T09:45:16.409Z,0.90
2023-10-27T09:47:52.276Z,0.60
2023-10-27T09:50:28.209Z,0.50
2023-10-27T09:53:00.219Z,0.83
2023-10-27T09:55:34.564Z,0.50
2023-10-27T09:58:02.631Z,0.60
2023-10-27T10:00:33.000Z,0.67
2023-10-27T10:03:01.489Z,0.50
2023-10-27T10:05:29.348Z,0.60
2023-10-27T10:07:58.128Z,0.70
2023-10-27T10:10:28.038Z,0.67
2023-10-27T10:13:09.605Z,0.60
2023-10-27T10:15:39.009Z,0.50
2023-10-27T10:18:35.219Z,0.80
2023-10-27T10:21:02.922Z,0.70
2023-10-27T10:23:39.881Z,0.83
2023-10-27T10:26:07.681Z,0.70
2023-10-27T10:28:35.524Z,0.70
2023-10-27T10:31:14.525Z,0.60
2023-10-27T10:33:45.525Z,0.80
2023-10-27T10:36:19.361Z,0.70
2023-10-27T10:39:11.882Z,0.70
2023-10-27T10:41:42.074Z,0.70
2023-10-27T10:44:16.362Z,0.70
2023-10-27T10:46:45.747Z,1.00
2023-10-27T10:49:23.374Z,1.20
2023-10-27T10:51:55.060Z,1.00
2023-10-27T10:54:33.579Z,0.70
2023-10-27T10:57:09.222Z,1.00
2023-10-27T10:59:37.992Z,1.20
2023-10-27T11:02:05.673Z,1.17
2023-10-27T11:07:07.459Z,1.08
2023-10-27T11:09:35.022Z,0.88
2023-10-27T11:12:04.880Z,0.90
2023-10-27T11:14:42.525Z,1.10
2023-10-27T11:17:12.907Z,0.95
2023-10-27T11:19:56.139Z,1.23
2023-10-27T11:22:25.889Z,1.05
2023-10-27T11:24:53.790Z,1.10
2023-10-27T11:27:27.848Z,1.40
2023-10-27T11:30:02.694Z,1.27
2023-10-27T11:32:30.789Z,1.10
2023-10-27T11:34:59.596Z,1.10
2023-10-27T11:37:27.961Z,1.00
2023-10-27T11:39:58.420Z,0.95
2023-10-27T11:42:25.881Z,0.90
2023-10-27T11:44:56.486Z,1.20
2023-10-27T11:47:26.259Z,0.95
2023-10-27T11:49:54.480Z,1.00
2023-10-27T11:52:22.808Z,1.40
2023-10-27T11:54:50.369Z,1.15
2023-10-27T11:57:17.828Z,1.10
2023-10-27T11:59:45.488Z,1.10
2023-10-27T12:02:14.914Z,1.08
2023-10-27T12:04:42.463Z,1.00
2023-10-27T12:07:12.574Z,1.00
2023-10-27T12:09:40.065Z,1.08
2023-10-27T12:12:09.945Z,1.08
2023-10-27T12:14:37.432Z,1.20
2023-10-27T12:17:07.222Z,1.73
2023-10-27T12:19:34.709Z,1.10
2023-10-27T12:22:02.680Z,1.63
2023-10-27T12:24:32.980Z,1.10
2023-10-27T12:27:00.722Z,1.50
2023-10-27T12:29:29.007Z,1.30
2023-10-27T12:31:56.672Z,2.00
2023-10-27T12:34:24.371Z,1.20
2023-10-27T12:36:51.872Z,1.30
2023-10-27T12:39:19.269Z,1.10
2023-10-27T12:41:46.682Z,1.23
2023-10-27T12:44:14.166Z,1.30
2023-10-27T12:46:41.660Z,1.30
2023-10-27T12:49:09.150Z,1.20
2023-10-27T12:51:39.324Z,1.52
2023-10-27T12:54:06.827Z,1.20
2023-10-27T12:56:34.224Z,1.42
2023-10-27T12:59:01.762Z,1.27
2023-10-27T13:01:29.405Z,1.50
2023-10-27T13:03:57.006Z,1.73
2023-10-27T13:06:24.495Z,1.20
2023-10-27T13:08:52.105Z,1.15
2023-10-27T13:11:19.545Z,0.90
2023-10-27T13:13:47.031Z,1.13
2023-10-27T13:16:15.429Z,0.90
2023-10-27T13:18:43.190Z,1.00
2023-10-27T13:21:15.642Z,0.88
2023-10-27T13:23:43.155Z,0.60
2023-10-27T13:26:10.844Z,0.93
2023-10-27T13:28:38.457Z,0.60
2023-10-27T13:31:06.170Z,0.80
2023-10-27T13:33:34.511Z,0.80
2023-10-27T13:36:10.318Z,0.85
2023-10-27T13:38:42.272Z,0.82
2023-10-27T13:41:16.708Z,0.80
2023-10-27T13:43:45.746Z,0.73
2023-10-27T13:46:16.350Z,1.02
2023-10-27T13:48:45.104Z,0.80
2023-10-27T13:51:15.631Z,0.95
2023-10-27T13:53:45.656Z,0.68
2023-10-27T13:56:20.305Z,0.80
2023-10-27T13:58:48.615Z,0.90
2023-10-27T14:01:16.237Z,0.80
2023-10-27T14:03:44.054Z,0.80
2023-10-27T14:06:14.649Z,0.60
2023-10-27T14:08:42.584Z,1.00
2023-10-27T14:11:10.446Z,0.80
2023-10-27T14:13:38.055Z,0.88
2023-10-27T14:16:09.985Z,0.80
2023-10-27T14:18:38.700Z,0.52
2023-10-27T14:21:09.057Z,0.70
2023-10-27T14:23:36.562Z,0.90
2023-10-27T14:26:04.497Z,0.73
2023-10-27T14:28:32.018Z,0.80
2023-10-27T14:31:00.300Z,0.85
2023-10-27T14:33:27.845Z,1.10
2023-10-27T14:35:55.288Z,0.85
2023-10-27T14:38:23.895Z,0.80
2023-10-27T14:40:52.940Z,0.80
2023-10-27T14:43:20.473Z,0.93
2023-10-27T14:45:58.519Z,0.98
2023-10-27T14:48:26.300Z,1.10
2023-10-27T14:51:05.162Z,0.90
2023-10-27T14:53:32.979Z,1.30
2023-10-27T14:56:02.633Z,0.90
2023-10-27T14:58:31.967Z,0.70
2023-10-27T15:01:06.099Z,0.93
2023-10-27T15:03:34.084Z,1.00
2023-10-27T15:06:07.649Z,1.10
2023-10-27T15:08:35.275Z,1.10
2023-10-27T15:11:08.685Z,1.40
2023-10-27T15:13:36.885Z,1.00
2023-10-27T15:16:14.256Z,1.00
2023-10-27T15:18:43.065Z,0.80
2023-10-27T15:21:12.726Z,1.10
2023-10-27T15:23:40.393Z,0.80
2023-10-27T15:26:12.445Z,1.10
2023-10-27T15:28:40.697Z,0.80
2023-10-27T15:31:09.770Z,0.80
2023-10-27T15:33:39.453Z,1.13
2023-10-27T15:36:09.901Z,1.17
2023-10-27T15:38:38.535Z,2.60
2023-10-27T15:41:22.390Z,1.10
2023-10-27T15:43:50.468Z,1.20
2023-10-27T15:46:18.173Z,1.10
2023-10-27T15:48:45.921Z,1.30
2023-10-27T15:51:15.485Z,1.00
2023-10-27T15:53:45.142Z,1.30
2023-10-27T15:56:12.748Z,1.00
2023-10-27T15:58:43.119Z,1.10
2023-10-27T16:01:11.157Z,1.80
2023-10-27T16:03:38.766Z,0.93
2023-10-27T16:06:07.066Z,1.10
2023-10-27T16:08:34.636Z,1.10
2023-10-27T16:11:03.562Z,1.43
2023-10-27T16:13:31.034Z,1.53
2023-10-27T16:15:58.438Z,1.13
2023-10-27T16:18:25.930Z,1.30
2023-10-27T16:20:53.430Z,1.50
2023-10-27T16:23:20.945Z,1.30
2023-10-27T16:25:48.371Z,1.43
2023-10-27T16:28:15.840Z,1.53
2023-10-27T16:30:43.403Z,1.70
2023-10-27T16:33:10.804Z,1.80
2023-10-27T16:35:38.283Z,1.40
2023-10-27T16:38:07.920Z,1.10
2023-10-27T16:40:39.432Z,1.60
2023-10-27T16:43:06.868Z,1.40
2023-10-27T16:45:37.775Z,1.27
2023-10-27T16:48:05.544Z,1.13
2023-10-27T16:50:32.943Z,1.30
2023-10-27T16:53:00.707Z,1.97
2023-10-27T16:55:31.824Z,1.47
2023-10-27T16:58:03.217Z,1.30
2023-10-27T17:00:30.673Z,1.53
2023-10-27T17:02:58.569Z,1.33
2023-10-27T17:05:27.221Z,1.73
2023-10-27T17:07:54.772Z,1.40
2023-10-27T17:10:22.218Z,1.83
2023-10-27T17:12:50.131Z,1.90
2023-10-27T17:15:17.539Z,1.57
2023-10-27T17:17:44.946Z,2.27
2023-10-27T17:20:17.138Z,1.90
2023-10-27T17:22:46.131Z,1.60
2023-10-27T17:25:14.540Z,1.53
2023-10-27T17:27:42.594Z,1.27
2023-10-27T17:30:12.381Z,1.43
2023-10-27T17:32:45.430Z,1.70
2023-10-27T17:35:12.974Z,3.87
2023-10-27T17:37:40.550Z,3.57
2023-10-27T17:40:10.275Z,1.70
2023-10-27T17:42:37.835Z,35.20
2023-10-27T17:45:06.684Z,46.93
2023-10-27T17:47:34.651Z,6.10
2023-10-27T17:50:02.303Z,1.20
2023-10-27T17:52:29.778Z,1.43
2023-10-27T17:54:59.276Z,5.27
2023-10-27T17:57:29.554Z,1.47
2023-10-27T17:59:57.321Z,1.47
2023-10-27T18:02:26.807Z,3.20
2023-10-27T18:04:54.620Z,2.33
2023-10-27T18:07:23.886Z,2.83
2023-10-27T18:09:51.789Z,1.70
2023-10-27T18:12:21.246Z,1.57
2023-10-27T18:14:48.765Z,2.47
2023-10-27T18:17:17.257Z,2.00
2023-10-27T18:19:45.326Z,1.37
2023-10-27T18:22:13.121Z,2.27
2023-10-27T18:24:40.475Z,2.40
2023-10-27T18:27:07.975Z,2.73
2023-10-27T18:29:39.659Z,2.30
2023-10-27T18:32:08.036Z,2.60
2023-10-27T18:34:35.536Z,2.60
2023-10-27T18:37:02.991Z,2.70
2023-10-27T18:39:31.044Z,2.57
2023-10-27T18:41:58.470Z,2.50
2023-10-27T18:44:25.962Z,2.00
2023-10-27T18:46:53.881Z,2.20
2023-10-27T18:49:22.742Z,2.10
2023-10-27T18:51:50.307Z,2.03
2023-10-27T18:54:18.300Z,2.37
2023-10-27T18:56:47.094Z,2.60
2023-10-27T18:59:14.776Z,2.70
2023-10-27T19:01:42.266Z,2.60
2023-10-27T19:04:10.570Z,2.73
2023-10-27T19:06:38.188Z,2.30
2023-10-27T19:09:07.263Z,2.40
2023-10-27T19:11:36.087Z,2.40
2023-10-27T19:14:03.701Z,2.20
2023-10-27T19:16:31.250Z,2.43
2023-10-27T19:18:59.366Z,2.67
2023-10-27T19:21:28.004Z,2.60
2023-10-27T19:23:57.679Z,3.23
2023-10-27T19:26:26.981Z,2.93
2023-10-27T19:28:56.088Z,2.67
2023-10-27T19:31:31.579Z,3.23
2023-10-27T19:34:00.278Z,2.90
2023-10-27T19:36:28.929Z,3.10
2023-10-27T19:38:56.367Z,4.03
2023-10-27T19:41:26.226Z,4.30
2023-10-27T19:43:53.750Z,2.90
2023-10-27T19:46:23.956Z,4.00
2023-10-27T19:48:51.397Z,3.70
2023-10-27T19:51:18.874Z,3.70
2023-10-27T19:53:47.499Z,3.17
2023-10-27T19:56:16.650Z,3.83
2023-10-27T19:58:48.114Z,3.60
2023-10-27T20:01:24.051Z,3.53
2023-10-27T20:03:52.904Z,3.33
2023-10-27T20:06:20.443Z,3.03
2023-10-27T20:08:48.513Z,3.33
2023-10-27T20:11:17.786Z,3.70
2023-10-27T20:13:46.893Z,3.30
2023-10-27T20:16:16.859Z,3.50
2023-10-27T20:18:44.807Z,3.83
2023-10-27T20:21:12.891Z,3.40
2023-10-27T20:23:44.844Z,3.20
2023-10-27T20:26:12.905Z,3.70
2023-10-27T20:28:41.179Z,3.43
2023-10-27T20:31:08.660Z,3.63
2023-10-27T20:33:36.591Z,4.23
2023-10-27T20:36:06.137Z,3.40
2023-10-27T20:38:33.993Z,3.13
2023-10-27T20:41:01.711Z,3.27
2023-10-27T20:43:29.510Z,3.50
2023-10-27T20:45:57.046Z,3.57
2023-10-27T20:48:24.476Z,3.20
2023-10-27T20:50:51.954Z,2.80
2023-10-27T20:53:20.579Z,3.70
2023-10-27T20:55:48.085Z,3.80
2023-10-27T20:58:15.540Z,3.23
2023-10-27T21:00:42.959Z,3.40
2023-10-27T21:03:10.345Z,4.60
2023-10-27T21:05:37.785Z,3.83
2023-10-27T21:08:06.158Z,4.30
2023-10-27T21:10:33.989Z,4.13
2023-10-27T21:13:01.613Z,4.80
2023-10-27T21:15:29.102Z,5.37
2023-10-27T21:17:57.893Z,4.90
2023-10-27T21:20:25.440Z,5.03
2023-10-27T21:22:53.732Z,4.63
2023-10-27T21:25:23.277Z,4.70
2023-10-27T21:27:50.989Z,5.30
2023-10-27T21:30:18.585Z,6.20
2023-10-27T21:32:46.012Z,6.17
2023-10-27T21:35:13.622Z,4.60
2023-10-27T21:37:41.228Z,3.97
2023-10-27T21:40:09.445Z,3.97
2023-10-27T21:42:37.160Z,3.17
2023-10-27T21:45:05.053Z,3.90
2023-10-27T21:47:32.668Z,4.07
2023-10-27T21:50:00.620Z,4.00
2023-10-27T21:52:28.120Z,4.33
2023-10-27T21:54:56.818Z,4.40
2023-10-27T21:57:24.305Z,4.40
2023-10-27T21:59:51.750Z,3.90
2023-10-27T22:02:19.254Z,4.27
2023-10-27T22:04:46.849Z,4.17
2023-10-27T22:07:14.641Z,3.97
2023-10-27T22:09:42.106Z,4.27
2023-10-27T22:12:09.558Z,5.00
2023-10-27T22:14:40.772Z,4.73
2023-10-27T22:17:09.958Z,4.80
2023-10-27T22:19:37.556Z,5.00
2023-10-27T22:22:05.084Z,4.10
2023-10-27T22:24:32.527Z,3.50
2023-10-27T22:27:00.032Z,4.00
2023-10-27T22:29:27.454Z,3.97
2023-10-27T22:31:54.922Z,3.80
2023-10-27T22:34:22.568Z,3.90
2023-10-27T22:36:50.147Z,3.60
2023-10-27T22:39:17.613Z,3.50
2023-10-27T22:41:44.974Z,3.23
2023-10-27T22:44:14.210Z,3.30
2023-10-27T22:46:41.750Z,3.50
2023-10-27T22:49:09.408Z,3.60
2023-10-27T22:51:36.965Z,3.20
2023-10-27T22:54:05.116Z,3.50
2023-10-27T22:56:32.514Z,3.37
2023-10-27T22:59:00.144Z,4.37
2023-10-27T23:01:27.742Z,4.27
2023-10-27T23:03:55.802Z,4.20
2023-10-27T23:06:25.498Z,4.57
2023-10-27T23:08:52.940Z,5.00
2023-10-27T23:11:21.383Z,5.07
2023-10-27T23:13:49.451Z,5.07
2023-10-27T23:16:18.653Z,4.97
2023-10-27T23:18:46.212Z,4.87
2023-10-27T23:21:14.152Z,4.63
2023-10-27T23:23:43.880Z,4.70
2023-10-27T23:26:12.346Z,4.50
2023-10-27T23:28:40.825Z,4.43
2023-10-27T23:31:10.187Z,4.50
2023-10-27T23:33:41.412Z,4.30
2023-10-27T23:36:12.116Z,4.47
2023-10-27T23:38:41.731Z,3.87
2023-10-27T23:41:13.108Z,4.63
2023-10-27T23:43:42.321Z,4.07
2023-10-27T23:46:10.116Z,3.40
2023-10-27T23:48:38.130Z,3.43
2023-10-27T23:51:06.082Z,3.40
2023-10-27T23:53:34.180Z,3.40
2023-10-27T23:56:02.227Z,3.20
2023-10-27T23:58:30.038Z,2.60
